Time;durP1;ratioP1;P1;durP2;ratioP2;P2;SDS_P1;SDS_P2;PMS_P1;PMS_P2;Temp;Humidity;BMP_temperature;BMP_pressure;BME280_temperature;BME280_humidity;BME280_pressure;Samples;Min_cycle;Max_cycle;Signal;HPM_P1;HPM_P2
2021/08/09 00:02:22;;;;;;;;;;;;;;;26.18;40.89;100698.30;1750992;80;20994;-42
2021/08/09 00:04:48;;;;;;;;;;;;;;;26.19;40.90;100685.17;1754737;80;20251;-44
2021/08/09 00:07:15;;;;;;;;;;;;;;;26.19;40.92;100690.16;1751185;80;20188;-43
2021/08/09 00:09:40;;;;;;;;;;;;;;;26.21;40.95;100692.63;1751491;80;20208;-42
2021/08/09 00:12:07;;;;;;;;;;;;;;;26.21;40.97;100685.66;1753514;80;20443;-43
2021/08/09 00:14:33;;;;;;;;;;;;;;;26.22;41.01;100688.11;1752116;80;21006;-42
2021/08/09 00:16:58;;;;;;;;;;;;;;;26.22;41.03;100685.31;1753560;80;20427;-42
2021/08/09 00:19:24;;;;;;;;;;;;;;;26.24;41.06;100682.15;1745081;80;21687;-41
2021/08/09 00:21:51;;;;;;;;;;;;;;;26.24;41.08;100684.36;1752680;80;20710;-41
2021/08/09 00:24:17;;;;;;;;;;;;;;;26.24;41.10;100677.38;1754718;80;20133;-43
2021/08/09 00:26:43;;;;;;;;;;;;;;;26.25;41.11;100683.20;1753119;80;21096;-42
2021/08/09 00:29:09;;;;;;;;;;;;;;;26.25;41.14;100676.22;1753381;80;20199;-43
2021/08/09 00:31:36;;;;;;;;;;;;;;;26.27;41.18;100675.84;1742015;80;20194;-40
2021/08/09 00:34:02;;;;;;;;;;;;;;;26.27;41.20;100670.27;1750154;80;20165;-39
2021/08/09 00:36:28;;;;;;;;;;;;;;;26.27;41.20;100675.27;1754015;80;20157;-40
2021/08/09 00:38:53;;;;;;;;;;;;;;;26.27;41.21;100675.27;1751336;80;21004;-41
2021/08/09 00:41:19;;;;;;;;;;;;;;;26.28;41.24;100678.28;1748229;80;20199;-40
2021/08/09 00:43:45;;;;;;;;;;;;;;;26.29;41.27;100680.49;1750660;80;20243;-41
2021/08/09 00:46:11;;;;;;;;;;;;;;;26.28;41.29;100682.47;1752052;80;20215;-42
2021/08/09 00:48:37;;;;;;;;;;;;;;;26.30;41.33;100680.73;1750309;80;20150;-40
2021/08/09 00:51:04;;;;;;;;;;;;;;;26.30;41.37;100672.36;1755814;80;20492;-40
2021/08/09 00:53:30;;;;;;;;;;;;;;;26.30;41.36;100676.54;1758295;80;20163;-41
2021/08/09 00:55:56;;;;;;;;;;;;;;;26.31;41.41;100676.74;1748513;80;20570;-42
2021/08/09 00:58:21;;;;;;;;;;;;;;;26.29;41.41;100663.17;1748114;80;20168;-42
2021/08/09 01:00:48;;;;;;;;;;;;;;;26.31;41.44;100669.77;1747028;80;20173;-41
2021/08/09 01:03:14;;;;;;;;;;;;;;;26.31;41.46;100669.19;1750230;80;21244;-41
2021/08/09 01:05:41;;;;;;;;;;;;;;;26.32;41.49;100668.61;1747580;80;20138;-42
2021/08/09 01:08:13;;;;;;;;;;;;;;;26.32;41.50;100672.21;1751257;80;20170;-40
2021/08/09 01:10:43;;;;;;;;;;;;;;;26.32;41.51;100675.00;1753543;80;20168;-40
2021/08/09 01:13:24;;;;;;;;;;;;;;;26.33;41.53;100672.45;1751020;80;20229;-41
2021/08/09 01:15:53;;;;;;;;;;;;;;;26.33;41.54;100668.26;1745355;80;21170;-43
2021/08/09 01:18:19;;;;;;;;;;;;;;;26.33;41.55;100669.66;1750764;80;20945;-43
2021/08/09 01:20:59;;;;;;;;;;;;;;;26.33;41.60;100665.47;1753492;80;20265;-42
2021/08/09 01:23:31;;;;;;;;;;;;;;;26.34;41.62;100664.31;1743971;80;20363;-41
2021/08/09 01:26:01;;;;;;;;;;;;;;;26.33;41.61;100673.02;1750830;80;20141;-42
2021/08/09 01:28:31;;;;;;;;;;;;;;;26.34;41.65;100675.47;1748154;80;22774;-42
2021/08/09 01:30:57;;;;;;;;;;;;;;;26.34;41.66;100678.84;1752028;80;20193;-40
2021/08/09 01:33:24;;;;;;;;;;;;;;;26.33;41.67;100679.41;1708468;81;20201;-40
2021/08/09 01:35:52;;;;;;;;;;;;;;;26.34;41.69;100674.07;1699354;83;20459;-41
2021/08/09 01:38:21;;;;;;;;;;;;;;;26.35;41.71;100673.48;1702977;82;20202;-41
2021/08/09 01:40:49;;;;;;;;;;;;;;;26.36;41.73;100675.90;1672520;82;20437;-40
2021/08/09 01:43:17;;;;;;;;;;;;;;;26.36;41.77;100680.08;1696539;82;20223;-41
2021/08/09 01:45:51;;;;;;;;;;;;;;;26.36;41.79;100681.48;1709262;82;20154;-42
2021/08/09 01:48:14;;;;;;;;;;;;;;;26.38;41.80;100680.31;1703048;83;20247;-40
2021/08/09 01:50:44;;;;;;;;;;;;;;;26.36;41.82;100678.69;1700599;81;20210;-43
2021/08/09 01:53:12;;;;;;;;;;;;;;;26.37;41.84;100678.11;1703527;82;20230;-43
2021/08/09 01:55:39;;;;;;;;;;;;;;;26.37;41.86;100675.32;1703827;82;20133;-41
2021/08/09 01:58:05;;;;;;;;;;;;;;;26.38;41.89;100673.34;1703228;82;20230;-45
2021/08/09 02:00:31;;;;;;;;;;;;;;;26.37;41.90;100671.13;1701116;82;20154;-42
2021/08/09 02:02:57;;;;;;;;;;;;;;;26.38;41.95;100676.95;1705219;82;20504;-42
2021/08/09 02:05:26;;;;;;;;;;;;;;;26.39;41.95;100674.97;1703237;82;21146;-41
2021/08/09 02:07:58;;;;;;;;;;;;;;;26.39;41.96;100674.97;1686727;82;20169;-43
2021/08/09 02:10:29;;;;;;;;;;;;;;;26.39;42.00;100672.99;1699932;82;20230;-43
2021/08/09 02:13:07;;;;;;;;;;;;;;;26.40;42.02;100682.14;1699678;82;20146;-43
2021/08/09 02:15:40;;;;;;;;;;;;;;;26.39;42.04;100682.76;1698069;82;20196;-41
2021/08/09 02:18:19;;;;;;;;;;;;;;;26.40;42.07;100686.33;1698474;82;21112;-41
2021/08/09 02:20:48;;;;;;;;;;;;;;;26.41;42.09;100679.59;1667085;84;20191;-43
2021/08/09 02:23:15;;;;;;;;;;;;;;;26.40;42.10;100677.96;1700712;82;20518;-42
2021/08/09 02:25:42;;;;;;;;;;;;;;;26.41;42.17;100680.98;1703596;82;20191;-42
2021/08/09 02:28:14;;;;;;;;;;;;;;;26.40;42.21;100680.17;1701468;82;20449;-42
2021/08/09 02:30:43;;;;;;;;;;;;;;;26.41;42.22;100686.56;1701724;83;21176;-41
2021/08/09 02:33:09;;;;;;;;;;;;;;;26.41;42.25;100681.80;1732075;80;20275;-42
2021/08/09 02:35:35;;;;;;;;;;;;;;;26.42;42.25;100690.98;1717738;81;20140;-40
2021/08/09 02:38:01;;;;;;;;;;;;;;;26.41;42.28;100692.95;1739595;81;20687;-40
2021/08/09 02:40:27;;;;;;;;;;;;;;;26.42;42.29;100693.19;1743989;81;20281;-42
2021/08/09 02:42:53;;;;;;;;;;;;;;;26.43;42.34;100700.97;1744795;81;21336;-41
2021/08/09 02:45:19;;;;;;;;;;;;;;;26.42;42.39;100692.38;1743754;80;20216;-41
2021/08/09 02:47:45;;;;;;;;;;;;;;;26.42;42.42;100695.16;1742834;80;20226;-40
2021/08/09 02:50:11;;;;;;;;;;;;;;;26.42;42.45;100695.98;1743628;81;20161;-42
2021/08/09 02:52:38;;;;;;;;;;;;;;;26.42;42.50;100692.38;1738427;80;20302;-41
2021/08/09 02:55:05;;;;;;;;;;;;;;;26.44;42.52;100697.02;1738659;80;21095;-42
2021/08/09 02:57:31;;;;;;;;;;;;;;;26.43;42.57;100694.81;1738646;81;20451;-40
2021/08/09 02:59:57;;;;;;;;;;;;;;;26.43;42.60;100696.79;1743573;80;20153;-41
2021/08/09 03:02:23;;;;;;;;;;;;;;;26.44;42.62;100708.18;1738756;80;20269;-41
2021/08/09 03:04:49;;;;;;;;;;;;;;;26.44;42.64;100704.00;1742669;80;20181;-42
2021/08/09 03:07:15;;;;;;;;;;;;;;;26.44;42.65;100712.36;1744349;80;23279;-43
2021/08/09 03:09:41;;;;;;;;;;;;;;;26.43;42.68;100709.34;1711897;82;20188;-42
2021/08/09 03:12:07;;;;;;;;;;;;;;;26.43;42.67;100708.77;1716279;82;20196;-41
2021/08/09 03:14:33;;;;;;;;;;;;;;;26.44;42.71;100708.96;1718715;82;20650;-41
2021/08/09 03:17:03;;;;;;;;;;;;;;;26.45;42.76;100705.59;1715274;82;20162;-41
2021/08/09 03:19:29;;;;;;;;;;;;;;;26.44;42.76;100711.75;1748024;80;21085;-41
2021/08/09 03:21:57;;;;;;;;;;;;;;;26.46;42.79;100708.61;1738683;80;20100;-43
2021/08/09 03:24:23;;;;;;;;;;;;;;;26.45;42.81;100713.38;1743073;81;20171;-43
2021/08/09 03:26:49;;;;;;;;;;;;;;;26.45;42.84;100712.56;1743189;80;20346;-42
2021/08/09 03:29:15;;;;;;;;;;;;;;;26.45;42.87;100712.56;1738783;80;20223;-41
2021/08/09 03:31:41;;;;;;;;;;;;;;;26.46;42.89;100715.59;1745770;80;21053;-41
2021/08/09 03:34:07;;;;;;;;;;;;;;;26.46;42.91;100721.98;1740506;80;20218;-43
2021/08/09 03:36:32;;;;;;;;;;;;;;;26.45;42.91;100718.96;1743547;81;20197;-42
2021/08/09 03:38:58;;;;;;;;;;;;;;;26.46;42.95;100720.59;1737740;80;22212;-42
2021/08/09 03:41:24;;;;;;;;;;;;;;;26.46;42.97;100728.14;1736366;80;20256;-41
2021/08/09 03:43:50;;;;;;;;;;;;;;;26.46;43.00;100726.17;1741360;81;21111;-41
2021/08/09 03:46:16;;;;;;;;;;;;;;;26.46;43.01;100732.33;1742869;80;20461;-41
2021/08/09 03:48:42;;;;;;;;;;;;;;;26.45;43.03;100737.67;1737753;80;20697;-42
2021/08/09 03:51:08;;;;;;;;;;;;;;;26.46;43.04;100744.30;1739914;80;20162;-42
2021/08/09 03:53:34;;;;;;;;;;;;;;;26.46;43.08;100744.88;1741858;81;20193;-41
2021/08/09 03:55:59;;;;;;;;;;;;;;;26.47;43.12;100748.72;1742210;80;21148;-41
2021/08/09 03:58:25;;;;;;;;;;;;;;;26.46;43.19;100746.28;1742529;80;20181;-41
2021/08/09 04:00:51;;;;;;;;;;;;;;;26.47;43.19;100749.30;1733859;81;20178;-41
2021/08/09 04:03:17;;;;;;;;;;;;;;;26.46;43.20;100749.06;1735324;80;20626;-41
2021/08/09 04:05:43;;;;;;;;;;;;;;;26.47;43.23;100756.28;1735120;81;20181;-40
2021/08/09 04:08:09;;;;;;;;;;;;;;;26.48;43.25;100755.11;1736018;80;21150;-41
2021/08/09 04:10:35;;;;;;;;;;;;;;;26.48;43.29;100760.70;1735631;80;20214;-44
2021/08/09 04:13:01;;;;;;;;;;;;;;;26.47;43.33;100755.70;1734223;80;20258;-44
2021/08/09 04:15:27;;;;;;;;;;;;;;;26.48;43.39;100751.71;1739603;80;20597;-43
2021/08/09 04:17:53;;;;;;;;;;;;;;;26.48;43.47;100747.53;1737038;80;20156;-44
2021/08/09 04:20:19;;;;;;;;;;;;;;;26.50;43.51;100746.59;1742063;80;21042;-46
2021/08/09 04:22:45;;;;;;;;;;;;;;;26.52;43.57;100744.86;1744980;80;20217;-44
2021/08/09 04:25:11;;;;;;;;;;;;;;;26.52;43.63;100752.61;1741414;81;20515;-43
2021/08/09 04:27:36;;;;;;;;;;;;;;;26.53;43.65;100745.87;1738761;80;20173;-45
2021/08/09 04:30:04;;;;;;;;;;;;;;;26.54;43.67;100751.69;1736013;80;20178;-44
2021/08/09 04:32:38;;;;;;;;;;;;;;;26.54;43.69;100748.08;1741955;80;21226;-40
2021/08/09 04:35:07;;;;;;;;;;;;;;;26.55;43.71;100751.92;1753233;80;20713;-41
2021/08/09 04:37:34;;;;;;;;;;;;;;;26.55;43.72;100747.73;1746570;80;20212;-41
2021/08/09 04:40:00;;;;;;;;;;;;;;;26.55;43.72;100746.34;1721197;81;21998;-42
2021/08/09 04:42:26;;;;;;;;;;;;;;;26.55;43.75;100750.52;1711493;82;20231;-42
2021/08/09 04:44:52;;;;;;;;;;;;;;;26.56;43.79;100760.52;1744779;80;21052;-42
2021/08/09 04:47:17;;;;;;;;;;;;;;;26.56;43.81;100762.50;1746540;80;20790;-44
2021/08/09 04:49:44;;;;;;;;;;;;;;;26.56;43.81;100766.10;1750967;80;20378;-42
2021/08/09 04:52:10;;;;;;;;;;;;;;;26.56;43.84;100771.68;1747090;80;20688;-42
2021/08/09 04:54:35;;;;;;;;;;;;;;;26.57;43.85;100774.67;1757172;80;20793;-42
2021/08/09 04:57:02;;;;;;;;;;;;;;;26.57;43.87;100768.28;1750399;80;20779;-42
2021/08/09 04:59:28;;;;;;;;;;;;;;;26.58;43.90;100771.30;1712862;81;20999;-42
2021/08/09 05:01:54;;;;;;;;;;;;;;;26.58;43.91;100772.70;1717362;81;20191;-43
2021/08/09 05:04:20;;;;;;;;;;;;;;;26.58;43.93;100773.52;1729020;81;20183;-44
2021/08/09 05:06:47;;;;;;;;;;;;;;;26.59;43.95;100772.93;1718522;81;20171;-42
2021/08/09 05:09:13;;;;;;;;;;;;;;;26.60;43.96;100780.14;1745785;80;21159;-41
2021/08/09 05:11:39;;;;;;;;;;;;;;;26.59;43.98;100777.93;1754655;80;20482;-42
2021/08/09 05:14:05;;;;;;;;;;;;;;;26.58;44.03;100770.72;1756400;80;20132;-43
2021/08/09 05:16:35;;;;;;;;;;;;;;;26.61;44.05;100785.92;1737894;80;20236;-44
2021/08/09 05:19:04;;;;;;;;;;;;;;;26.60;44.09;100782.93;1745523;80;20268;-43
2021/08/09 05:21:32;;;;;;;;;;;;;;;26.60;44.12;100782.34;1745184;80;21183;-40
2021/08/09 05:24:02;;;;;;;;;;;;;;;26.60;44.14;100782.34;1750574;80;20464;-41
2021/08/09 05:26:28;;;;;;;;;;;;;;;26.62;44.20;100786.16;1747107;80;20134;-43
2021/08/09 05:28:55;;;;;;;;;;;;;;;26.63;44.26;100787.78;1749095;80;20251;-44
2021/08/09 05:31:21;;;;;;;;;;;;;;;26.62;44.30;100791.16;1750819;80;20202;-44
2021/08/09 05:33:47;;;;;;;;;;;;;;;26.63;44.34;100790.58;1750669;80;21048;-42
2021/08/09 05:36:12;;;;;;;;;;;;;;;26.64;44.42;100789.41;1750868;80;20533;-42
2021/08/09 05:38:38;;;;;;;;;;;;;;;26.64;44.47;100791.62;1751670;80;20196;-44
2021/08/09 05:41:05;;;;;;;;;;;;;;;26.65;44.51;100788.25;1748251;80;20419;-45
2021/08/09 05:43:32;;;;;;;;;;;;;;;26.65;44.54;100785.46;1753200;80;20274;-90
2021/08/09 05:45:58;;;;;;;;;;;;;;;26.65;44.57;100789.64;1747639;80;21114;-44
2021/08/09 05:48:24;;;;;;;;;;;;;;;26.66;44.59;100792.06;1752091;80;20117;-42
2021/08/09 05:50:50;;;;;;;;;;;;;;;26.66;44.62;100787.88;1754050;80;20217;-44
2021/08/09 05:53:16;;;;;;;;;;;;;;;26.66;44.66;100790.66;1750475;80;20349;-42
2021/08/09 05:55:42;;;;;;;;;;;;;;;26.67;44.73;100788.69;1749774;80;20197;-43
2021/08/09 05:58:08;;;;;;;;;;;;;;;26.67;44.72;100782.52;1749989;80;21095;-44
2021/08/09 06:00:34;;;;;;;;;;;;;;;26.67;44.75;100785.31;1747769;80;20245;-42
2021/08/09 06:03:00;;;;;;;;;;;;;;;26.68;44.78;100787.52;1753377;80;20930;-46
2021/08/09 06:05:27;;;;;;;;;;;;;;;26.69;44.81;100798.92;1750916;80;20324;-42
2021/08/09 06:07:53;;;;;;;;;;;;;;;26.68;44.83;100793.92;1752394;80;20134;-41
2021/08/09 06:10:21;;;;;;;;;;;;;;;26.69;44.84;100794.73;1748030;80;21116;-42
2021/08/09 06:12:47;;;;;;;;;;;;;;;26.69;44.88;100791.94;1748192;80;21268;-42
2021/08/09 06:15:13;;;;;;;;;;;;;;;26.70;44.89;100792.95;1749255;80;20202;-43
2021/08/09 06:17:39;;;;;;;;;;;;;;;26.69;44.92;100785.75;1749298;80;20448;-42
2021/08/09 06:20:06;;;;;;;;;;;;;;;26.70;44.97;100789.36;1748109;80;21531;-43
2021/08/09 06:22:32;;;;;;;;;;;;;;;26.69;44.99;100786.36;1749569;80;21166;-44
2021/08/09 06:24:58;;;;;;;;;;;;;;;26.70;45.00;100775.40;1752018;80;20794;-43
2021/08/09 06:27:24;;;;;;;;;;;;;;;26.70;45.05;100777.61;1753086;80;20177;-43
2021/08/09 06:29:50;;;;;;;;;;;;;;;26.70;45.05;100781.80;1751974;80;20250;-43
2021/08/09 06:32:16;;;;;;;;;;;;;;;26.70;45.09;100776.80;1752014;80;20245;-44
2021/08/09 06:34:42;;;;;;;;;;;;;;;26.70;45.12;100783.19;1719614;80;21817;-42
2021/08/09 06:37:08;;;;;;;;;;;;;;;26.70;45.15;100776.80;1714802;82;20173;-43
2021/08/09 06:39:33;;;;;;;;;;;;;;;26.68;45.14;100772.98;1706018;82;20360;-44
2021/08/09 06:42:03;;;;;;;;;;;;;;;26.66;45.12;100773.10;1717700;82;20195;-41
2021/08/09 06:44:27;;;;;;;;;;;;;;;26.62;45.12;100775.81;1723524;82;20132;-43
2021/08/09 06:46:53;;;;;;;;;;;;;;;26.58;45.09;100777.70;1709689;82;23359;-43
2021/08/09 06:49:19;;;;;;;;;;;;;;;26.55;45.03;100774.82;1700141;82;20207;-43
2021/08/09 06:51:45;;;;;;;;;;;;;;;26.52;44.98;100769.36;1720834;82;20268;-42
2021/08/09 06:54:11;;;;;;;;;;;;;;;26.48;44.92;100764.27;1718809;82;20227;-43
2021/08/09 06:56:37;;;;;;;;;;;;;;;26.45;44.84;100771.16;1721138;82;20747;-43
2021/08/09 06:59:03;;;;;;;;;;;;;;;26.43;44.78;100767.92;1722232;82;21131;-44
2021/08/09 07:01:29;;;;;;;;;;;;;;;26.41;44.70;100766.88;1711099;82;20448;-43
2021/08/09 07:03:56;;;;;;;;;;;;;;;26.39;44.62;100767.02;1718624;82;21638;-43
2021/08/09 07:06:23;;;;;;;;;;;;;;;26.38;44.56;100769.58;1711302;82;20579;-43
2021/08/09 07:08:51;;;;;;;;;;;;;;;26.39;44.54;100772.61;1719273;82;20206;-42
2021/08/09 07:11:17;;;;;;;;;;;;;;;26.39;44.54;100772.02;1723974;82;21466;-42
2021/08/09 07:13:44;;;;;;;;;;;;;;;26.41;44.52;100770.25;1700308;82;20236;-42
2021/08/09 07:16:10;;;;;;;;;;;;;;;26.41;44.51;100773.85;1715838;82;20148;-44
2021/08/09 07:18:35;;;;;;;;;;;;;;;26.43;44.50;100767.92;1720089;82;20706;-43
2021/08/09 07:21:02;;;;;;;;;;;;;;;26.44;44.50;100771.73;1721088;82;20194;-42
2021/08/09 07:23:28;;;;;;;;;;;;;;;26.45;44.49;100769.17;1715134;82;21575;-42
2021/08/09 07:25:54;;;;;;;;;;;;;;;26.47;44.49;100773.02;1710458;82;20208;-43
2021/08/09 07:28:20;;;;;;;;;;;;;;;26.47;44.49;100781.38;1708101;82;20218;-42
2021/08/09 07:30:46;;;;;;;;;;;;;;;26.48;44.48;100781.62;1718591;82;20193;-42
2021/08/09 07:33:12;;;;;;;;;;;;;;;26.49;44.49;100788.22;1722806;81;20241;-42
2021/08/09 07:35:38;;;;;;;;;;;;;;;26.51;44.48;100792.87;1751081;80;21091;-41
2021/08/09 07:38:04;;;;;;;;;;;;;;;26.52;44.50;100791.67;1750360;80;20834;-43
2021/08/09 07:40:30;;;;;;;;;;;;;;;26.53;44.48;100792.48;1743714;80;20221;-43
2021/08/09 07:42:56;;;;;;;;;;;;;;;26.53;44.48;100793.30;1746113;80;22224;-43
2021/08/09 07:45:23;;;;;;;;;;;;;;;26.54;44.51;100796.33;1750111;80;20190;-44
2021/08/09 07:47:52;;;;;;;;;;;;;;;26.55;44.53;100798.54;1750187;80;21132;-43
2021/08/09 07:50:22;;;;;;;;;;;;;;;26.55;44.53;100798.54;1750252;80;20347;-43
2021/08/09 07:52:49;;;;;;;;;;;;;;;26.57;44.52;100808.73;1750453;80;20523;-43
2021/08/09 07:55:15;;;;;;;;;;;;;;;26.57;44.55;100816.53;1749438;80;20181;-43
2021/08/09 07:57:42;;;;;;;;;;;;;;;26.58;44.54;100814.55;1749639;80;20212;-45
2021/08/09 08:00:09;;;;;;;;;;;;;;;26.59;44.54;100813.39;1747705;80;21915;-43
2021/08/09 08:02:36;;;;;;;;;;;;;;;26.59;44.54;100815.60;1750937;80;20416;-43
2021/08/09 08:05:02;;;;;;;;;;;;;;;26.59;44.55;100814.78;1751220;80;20440;-42
2021/08/09 08:07:28;;;;;;;;;;;;;;;26.61;44.55;100809.64;1745858;80;22157;-42
2021/08/09 08:09:55;;;;;;;;;;;;;;;26.62;44.56;100811.27;1751618;80;20245;-42
2021/08/09 08:12:21;;;;;;;;;;;;;;;26.62;44.59;100811.27;1746651;80;21078;-42
2021/08/09 08:14:46;;;;;;;;;;;;;;;26.62;44.56;100813.48;1751341;80;20271;-42
2021/08/09 08:17:12;;;;;;;;;;;;;;;26.63;44.59;100812.90;1750477;80;20169;-43
2021/08/09 08:19:38;;;;;;;;;;;;;;;26.63;44.60;100807.32;1748394;80;22179;-42
2021/08/09 08:22:04;;;;;;;;;;;;;;;26.64;44.63;100811.73;1747028;80;20182;-42
2021/08/09 08:24:30;;;;;;;;;;;;;;;26.65;44.63;100807.78;1750262;80;21149;-41
2021/08/09 08:26:56;;;;;;;;;;;;;;;26.66;44.63;100812.17;1749986;80;20222;-41
2021/08/09 08:29:22;;;;;;;;;;;;;;;26.64;44.64;100813.13;1749470;80;20864;-42
2021/08/09 08:31:48;;;;;;;;;;;;;;;26.66;44.66;100808.80;1751441;80;20164;-42
2021/08/09 08:34:14;;;;;;;;;;;;;;;26.66;44.67;100806.02;1751484;80;20197;-41
2021/08/09 08:36:40;;;;;;;;;;;;;;;26.67;44.68;100807.64;1751655;80;20598;-41
2021/08/09 08:39:10;;;;;;;;;;;;;;;26.67;44.68;100806.25;1745446;80;20540;-42
2021/08/09 08:41:34;;;;;;;;;;;;;;;26.68;44.69;100809.27;1745697;80;20358;-42
2021/08/09 08:44:00;;;;;;;;;;;;;;;26.69;44.71;100803.11;1724144;81;20196;-41
2021/08/09 08:46:26;;;;;;;;;;;;;;;26.69;44.70;100797.52;1750300;80;20143;-43
2021/08/09 08:48:52;;;;;;;;;;;;;;;26.70;44.71;100796.33;1752477;80;21947;-43
2021/08/09 08:51:24;;;;;;;;;;;;;;;26.70;44.73;100799.13;1755577;80;20195;-42
2021/08/09 08:53:50;;;;;;;;;;;;;;;26.71;44.76;100798.77;1749024;80;20149;-42
2021/08/09 08:56:16;;;;;;;;;;;;;;;26.70;44.76;100797.14;1743217;80;20719;-41
2021/08/09 08:58:42;;;;;;;;;;;;;;;26.72;44.76;100794.01;1745852;80;20272;-43
2021/08/09 09:01:07;;;;;;;;;;;;;;;26.72;44.76;100792.03;1752602;80;21317;-44
2021/08/09 09:03:39;;;;;;;;;;;;;;;26.72;44.77;100795.41;1747558;80;20794;-41
2021/08/09 09:06:09;;;;;;;;;;;;;;;26.73;44.79;100796.42;1743153;80;20242;-44
2021/08/09 09:08:45;;;;;;;;;;;;;;;26.74;44.83;100798.63;1747768;80;20244;-43
2021/08/09 09:11:18;;;;;;;;;;;;;;;26.74;44.84;100795.25;1741580;80;20243;-45
2021/08/09 09:14:04;;;;;;;;;;;;;;;26.74;44.84;100793.86;1744689;80;21007;-43
2021/08/09 09:16:47;;;;;;;;;;;;;;;26.75;44.85;100784.91;1745859;80;20214;-42
2021/08/09 09:19:32;;;;;;;;;;;;;;;26.75;44.87;100791.30;1750404;80;20211;-44
2021/08/09 09:21:58;;;;;;;;;;;;;;;26.76;44.87;100786.53;1743061;80;20213;-44
2021/08/09 09:24:25;;;;;;;;;;;;;;;26.76;44.90;100792.12;1749488;80;20210;-42
2021/08/09 09:27:06;;;;;;;;;;;;;;;26.77;44.91;100781.19;1749994;80;21056;-44
2021/08/09 09:29:36;;;;;;;;;;;;;;;26.77;44.95;100782.58;1752389;80;20565;-42
2021/08/09 09:32:16;;;;;;;;;;;;;;;26.78;44.95;100784.17;1754953;80;20194;-41
2021/08/09 09:34:50;;;;;;;;;;;;;;;26.77;44.97;100782.00;1736794;80;20213;-42
2021/08/09 09:37:25;;;;;;;;;;;;;;;26.78;44.99;100778.59;1703812;82;20149;-42
2021/08/09 09:39:51;;;;;;;;;;;;;;;26.78;45.01;100779.41;1719546;82;21166;-43
2021/08/09 09:42:17;;;;;;;;;;;;;;;26.79;45.03;100773.24;1715741;82;20897;-42
2021/08/09 09:44:43;;;;;;;;;;;;;;;26.79;45.06;100762.08;1714919;82;20123;-43
2021/08/09 09:47:26;;;;;;;;;;;;;;;26.78;45.07;100772.42;1716568;82;22099;-43
2021/08/09 09:49:59;;;;;;;;;;;;;;;26.76;45.04;100769.20;1727321;82;20186;-43
2021/08/09 09:52:44;;;;;;;;;;;;;;;26.73;44.97;100771.30;1709989;82;21885;-42
2021/08/09 09:55:09;;;;;;;;;;;;;;;26.69;44.93;100769.00;1711589;82;20399;-42
2021/08/09 09:57:35;;;;;;;;;;;;;;;26.66;44.84;100767.52;1719191;82;20515;-42
2021/08/09 10:00:02;;;;;;;;;;;;;;;26.62;44.77;100761.86;1727763;81;20174;-44
2021/08/09 10:02:29;;;;;;;;;;;;;;;26.60;44.72;100755.03;1718749;82;20335;-43
2021/08/09 10:04:55;;;;;;;;;;;;;;;26.58;44.64;100750.38;1718858;82;21219;-45
2021/08/09 10:07:25;;;;;;;;;;;;;;;26.55;44.56;100759.47;1709659;82;20513;-42
2021/08/09 10:09:50;;;;;;;;;;;;;;;26.54;44.47;100762.03;1725608;82;20213;-42
2021/08/09 10:12:18;;;;;;;;;;;;;;;26.52;44.38;100759.59;1722086;82;20414;-43
2021/08/09 10:14:44;;;;;;;;;;;;;;;26.50;44.30;100758.34;1723502;82;20217;-41
2021/08/09 10:17:10;;;;;;;;;;;;;;;26.48;44.22;100755.90;1728681;82;21024;-42
2021/08/09 10:19:36;;;;;;;;;;;;;;;26.46;44.10;100752.67;1721948;82;21529;-44
2021/08/09 10:22:02;;;;;;;;;;;;;;;26.46;44.01;100751.86;1722388;82;20207;-43
2021/08/09 10:24:41;;;;;;;;;;;;;;;26.45;43.92;100741.28;1697991;82;20165;-42
2021/08/09 10:27:08;;;;;;;;;;;;;;;26.44;43.82;100737.47;1704798;82;20486;-42
2021/08/09 10:29:53;;;;;;;;;;;;;;;26.41;43.71;100735.37;1721753;82;21289;-42
2021/08/09 10:32:20;;;;;;;;;;;;;;;26.41;43.62;100739.56;1672477;84;20203;-43
2021/08/09 10:34:46;;;;;;;;;;;;;;;26.39;43.52;100730.18;1715083;80;20204;-43
2021/08/09 10:37:13;;;;;;;;;;;;;;;26.38;43.44;100736.11;1734098;81;20193;-42
2021/08/09 10:39:49;;;;;;;;;;;;;;;26.39;43.36;100736.34;1737767;81;20408;-43
2021/08/09 10:42:39;;;;;;;;;;;;;;;26.38;43.25;100738.89;1736460;81;20452;-42
2021/08/09 10:45:17;;;;;;;;;;;;;;;26.37;43.18;100735.30;1739552;81;20494;-41
2021/08/09 10:47:58;;;;;;;;;;;;;;;26.36;43.05;100731.69;1729152;81;20240;-44
2021/08/09 10:50:40;;;;;;;;;;;;;;;26.36;42.96;100733.08;1737412;81;20916;-41
2021/08/09 10:53:29;;;;;;;;;;;;;;;26.35;42.86;100727.27;1739643;81;20506;-43
2021/08/09 10:55:55;;;;;;;;;;;;;;;26.35;42.77;100725.09;1737593;81;21021;-42
2021/08/09 10:58:46;;;;;;;;;;;;;;;26.34;42.67;100723.47;1742714;81;20450;-44
2021/08/09 11:01:14;;;;;;;;;;;;;;;26.33;42.58;100722.65;1737216;81;20227;-43
2021/08/09 11:04:06;;;;;;;;;;;;;;;26.34;42.49;100717.89;1736878;81;20932;-43
2021/08/09 11:06:50;;;;;;;;;;;;;;;26.33;42.44;100713.47;1732063;81;20228;-43
2021/08/09 11:09:37;;;;;;;;;;;;;;;26.32;42.36;100705.68;1734165;81;21000;-43
2021/08/09 11:12:18;;;;;;;;;;;;;;;26.32;42.26;100713.23;1732186;81;20195;-43
2021/08/09 11:15:10;;;;;;;;;;;;;;;26.32;42.17;100706.27;1730193;81;20199;-42
2021/08/09 11:17:40;;;;;;;;;;;;;;;26.31;42.11;100704.64;1722727;81;20499;-44
2021/08/09 11:20:13;;;;;;;;;;;;;;;26.30;42.01;100702.45;1724596;81;20259;-44
2021/08/09 11:22:39;;;;;;;;;;;;;;;26.32;42.02;100701.50;1722936;81;21152;-44
2021/08/09 11:25:27;;;;;;;;;;;;;;;26.36;41.99;100702.40;1728537;81;20240;-43
2021/08/09 11:28:05;;;;;;;;;;;;;;;26.40;41.97;100702.48;1721019;81;20165;-43
2021/08/09 11:30:43;;;;;;;;;;;;;;;26.45;41.96;100697.22;1733732;81;20809;-43
2021/08/09 11:33:30;;;;;;;;;;;;;;;26.48;41.93;100700.71;1720635;81;20307;-44
2021/08/09 11:36:03;;;;;;;;;;;;;;;26.52;41.92;100697.42;1748643;80;21149;-45
2021/08/09 11:38:48;;;;;;;;;;;;;;;26.56;41.93;100703.31;1754698;80;20240;-43
2021/08/09 11:41:16;;;;;;;;;;;;;;;26.61;41.93;100700.81;1755920;80;20166;-44
2021/08/09 11:43:42;;;;;;;;;;;;;;;26.65;41.92;100700.34;1756006;80;20473;-44
2021/08/09 11:46:13;;;;;;;;;;;;;;;26.68;41.95;100702.41;1755868;80;20245;-44
2021/08/09 11:48:41;;;;;;;;;;;;;;;26.71;41.94;100707.25;1756968;80;21092;-44
2021/08/09 11:51:11;;;;;;;;;;;;;;;26.74;41.96;100697.56;1756783;80;21601;-43
2021/08/09 11:53:39;;;;;;;;;;;;;;;26.77;41.96;100702.45;1755239;80;20227;-45
2021/08/09 11:56:08;;;;;;;;;;;;;;;26.80;41.99;100703.11;1755801;80;20134;-43
2021/08/09 11:58:35;;;;;;;;;;;;;;;26.86;42.03;100699.49;1759840;80;20468;-43
2021/08/09 12:01:01;;;;;;;;;;;;;;;26.89;42.05;100697.36;1754626;80;22011;-44
2021/08/09 12:03:27;;;;;;;;;;;;;;;26.92;42.09;100696.62;1755354;80;20186;-43
2021/08/09 12:05:58;;;;;;;;;;;;;;;26.95;42.11;100686.12;1754888;80;20186;-44
2021/08/09 12:08:24;;;;;;;;;;;;;;;26.97;42.05;100686.58;1750772;80;20262;-44
2021/08/09 12:10:51;;;;;;;;;;;;;;;26.98;42.00;100690.19;1756318;80;20499;-43
2021/08/09 12:13:24;;;;;;;;;;;;;;;26.97;41.95;100685.19;1754413;80;21045;-45
2021/08/09 12:16:10;;;;;;;;;;;;;;;26.97;41.94;100679.60;1756485;80;20404;-45
2021/08/09 12:18:40;;;;;;;;;;;;;;;26.96;41.89;100683.56;1758015;80;20225;-43
2021/08/09 12:21:07;;;;;;;;;;;;;;;26.95;41.88;100672.16;1758228;80;20420;-44
2021/08/09 12:23:34;;;;;;;;;;;;;;;26.95;41.83;100669.37;1761222;80;20474;-43
2021/08/09 12:26:00;;;;;;;;;;;;;;;26.93;41.80;100668.13;1759231;80;21800;-45
2021/08/09 12:28:29;;;;;;;;;;;;;;;26.92;41.74;100658.94;1762953;80;20318;-43
2021/08/09 12:30:55;;;;;;;;;;;;;;;26.93;41.69;100668.13;1758862;80;20220;-46
2021/08/09 12:33:21;;;;;;;;;;;;;;;26.92;41.64;100660.33;1757573;80;20147;-45
2021/08/09 12:35:47;;;;;;;;;;;;;;;26.93;41.58;100661.95;1750567;80;20190;-45
2021/08/09 12:38:14;;;;;;;;;;;;;;;26.94;41.56;100668.36;1751640;80;23290;-43
2021/08/09 12:40:45;;;;;;;;;;;;;;;26.93;41.52;100655.56;1748027;80;20195;-42
2021/08/09 12:43:15;;;;;;;;;;;;;;;26.92;41.45;100663.13;1746020;80;20167;-46